Time;durP1;ratioP1;P1;durP2;ratioP2;P2;SDS_P1;SDS_P2;PMS_P1;PMS_P2;Temp;Humidity;BMP_temperature;BMP_pressure;BME280_temperature;BME280_humidity;BME280_pressure;Samples;Min_cycle;Max_cycle;Signal;HPM_P1;HPM_P2
2021/11/26 00:00:12;;;;;;;24.70;18.30;;;;;;;2.53;91.32;97868.94;1679166;83;26522;-74
2021/11/26 00:02:41;;;;;;;23.10;16.40;;;;;;;2.52;91.48;97869.81;1679809;84;21019;-74
2021/11/26 00:05:08;;;;;;;27.97;18.13;;;;;;;2.53;91.52;97863.78;1685614;84;21162;-74
2021/11/26 00:07:35;;;;;;;27.17;19.10;;;;;;;2.53;91.62;97865.06;1690367;82;21745;-74
2021/11/26 00:10:03;;;;;;;24.77;18.07;;;;;;;2.53;91.62;97859.45;1685663;83;21675;-74
2021/11/26 00:12:31;;;;;;;22.02;17.32;;;;;;;2.53;91.59;97856.05;1685311;83;21340;-74
2021/11/26 00:17:27;;;;;;;28.70;18.30;;;;;;;2.55;91.62;97851.64;1677525;82;21059;-75
2021/11/26 00:19:54;;;;;;;23.80;18.25;;;;;;;2.55;91.63;97851.64;1687570;83;21136;-74
2021/11/26 00:22:20;;;;;;;24.30;17.20;;;;;;;2.56;91.70;97859.78;1682779;83;23195;-74
2021/11/26 00:24:49;;;;;;;22.58;17.48;;;;;;;2.57;91.66;97866.59;1688673;83;21604;-74
2021/11/26 00:27:16;;;;;;;27.20;17.70;;;;;;;2.58;91.75;97859.27;1653178;84;21118;-74
2021/11/26 00:29:42;;;;;;;23.47;17.73;;;;;;;2.60;91.74;97857.44;1701107;83;21059;-74
2021/11/26 00:32:09;;;;;;;23.57;16.42;;;;;;;2.64;91.81;97858.98;1704903;83;21026;-74
2021/11/26 00:34:36;;;;;;;22.70;16.43;;;;;;;2.68;91.85;97857.93;1688301;83;21573;-74
2021/11/26 00:37:03;;;;;;;23.77;16.82;;;;;;;2.71;91.82;97849.22;1727808;81;21080;-74
2021/11/26 00:39:30;;;;;;;20.88;16.80;;;;;;;2.73;91.75;97846.96;1729345;81;21096;-72
2021/11/26 00:41:57;;;;;;;23.00;16.73;;;;;;;2.72;91.68;97837.58;1716525;81;21033;-72
2021/11/26 00:44:24;;;;;;;26.80;16.82;;;;;;;2.71;91.66;97833.30;1694722;83;21083;-74
2021/11/26 00:46:50;;;;;;;28.17;16.12;;;;;;;2.72;91.65;97832.42;1728341;81;20961;-74
2021/11/26 00:49:17;;;;;;;22.42;15.23;;;;;;;2.75;91.73;97840.47;1724835;81;21140;-74
2021/11/26 00:51:43;;;;;;;27.07;15.70;;;;;;;2.77;91.78;97836.05;1715396;81;22441;-74
2021/11/26 00:54:10;;;;;;;22.35;15.70;;;;;;;2.78;91.70;97838.58;1728937;81;20963;-74
2021/11/26 00:56:37;;;;;;;24.43;15.27;;;;;;;2.78;91.66;97840.32;1738229;81;21068;-74
2021/11/26 00:59:04;;;;;;;19.70;13.97;;;;;;;2.79;91.76;97836.37;1735967;81;21005;-75
2021/11/26 01:01:30;;;;;;;21.73;15.00;;;;;;;2.83;91.79;97839.20;1727594;80;21041;-74
2021/11/26 01:03:57;;;;;;;23.77;14.55;;;;;;;2.86;91.82;97833.91;1730301;80;21848;-74
2021/11/26 01:06:24;;;;;;;22.25;14.70;;;;;;;2.87;91.74;97842.47;1729458;80;20967;-74
2021/11/26 01:08:50;;;;;;;19.35;14.25;;;;;;;2.89;91.79;97849.23;1662368;83;22400;-74
2021/11/26 01:11:17;;;;;;;20.60;13.50;;;;;;;2.90;91.73;97844.44;1731166;80;20946;-75
2021/11/26 01:13:44;;;;;;;24.17;15.00;;;;;;;2.94;91.66;97843.01;1725541;80;20930;-73
2021/11/26 01:16:11;;;;;;;23.20;14.65;;;;;;;2.95;91.64;97847.28;1723896;80;21055;-74
2021/11/26 01:18:37;;;;;;;21.67;14.97;;;;;;;2.94;91.63;97846.88;1735696;81;21040;-74
2021/11/26 01:21:06;;;;;;;22.87;13.80;;;;;;;2.91;91.68;97839.69;1731657;81;21587;-74
2021/11/26 01:23:35;;;;;;;21.70;13.80;;;;;;;2.94;91.71;97841.30;1729612;81;21156;-74
2021/11/26 01:26:02;;;;;;;20.10;14.73;;;;;;;2.96;91.68;97834.76;1729987;81;21060;-75
2021/11/26 01:28:29;;;;;;;23.18;14.85;;;;;;;2.96;91.66;97836.05;1726101;81;21099;-74
2021/11/26 01:30:58;;;;;;;23.92;14.53;;;;;;;2.98;91.67;97839.40;1675068;83;21039;-74
2021/11/26 01:33:25;;;;;;;21.45;14.10;;;;;;;3.00;91.67;97832.44;1668233;84;21097;-75
2021/11/26 01:35:53;;;;;;;19.37;13.05;;;;;;;3.01;91.61;97836.67;1667626;83;21149;-74
2021/11/26 01:38:21;;;;;;;20.17;13.53;;;;;;;3.00;91.62;97832.44;1667375;83;21561;-74
2021/11/26 01:40:49;;;;;;;22.13;14.13;;;;;;;3.04;91.68;97836.53;1678275;83;21083;-75
2021/11/26 01:43:20;;;;;;;21.40;14.28;;;;;;;3.04;91.62;97835.23;1673702;84;21166;-75
2021/11/26 01:45:53;;;;;;;27.67;13.55;;;;;;;3.04;91.66;97825.75;1666176;84;22414;-74
2021/11/26 01:48:23;;;;;;;20.57;12.70;;;;;;;3.06;91.59;97829.56;1643135;84;21356;-74
2021/11/26 01:50:52;;;;;;;22.75;12.85;;;;;;;3.05;91.50;97817.56;1665657;83;21006;-74
2021/11/26 01:53:19;;;;;;;23.50;12.78;;;;;;;3.01;91.43;97818.17;1667113;84;21649;-74
2021/11/26 01:55:46;;;;;;;19.97;11.37;;;;;;;3.00;91.48;97819.09;1665831;85;21806;-74
2021/11/26 01:58:13;;;;;;;22.77;11.93;;;;;;;3.01;91.54;97818.63;1644532;86;21649;-74
2021/11/26 02:00:43;;;;;;;17.10;11.53;;;;;;;3.01;91.54;97823.78;1667883;85;21002;-74
2021/11/26 02:03:11;;;;;;;17.57;11.38;;;;;;;3.02;91.52;97811.27;1673856;83;20994;-74
2021/11/26 02:05:38;;;;;;;20.97;11.38;;;;;;;3.03;91.52;97821.98;1674992;83;21052;-74
2021/11/26 02:08:06;;;;;;;15.65;10.90;;;;;;;3.06;91.57;97810.23;1674468;83;21075;-74
2021/11/26 02:10:33;;;;;;;17.05;11.22;;;;;;;3.10;91.61;97815.61;1669242;83;21092;-74
2021/11/26 02:13:00;;;;;;;16.97;11.50;;;;;;;3.12;91.61;97811.22;1665274;85;20998;-74
2021/11/26 02:15:31;;;;;;;20.87;10.63;;;;;;;3.17;91.64;97810.55;1665528;83;21107;-74
2021/11/26 02:17:59;;;;;;;15.10;10.25;;;;;;;3.17;91.37;97806.69;1639244;85;21150;-74
2021/11/26 02:20:28;;;;;;;16.95;9.63;;;;;;;3.11;91.20;97799.24;1638919;85;21077;-74
2021/11/26 02:22:57;;;;;;;23.65;10.25;;;;;;;3.04;91.09;97795.27;1664323;83;21586;-74
2021/11/26 02:25:26;;;;;;;20.17;11.22;;;;;;;2.98;91.00;97789.13;1664989;84;21073;-74
2021/11/26 02:27:57;;;;;;;16.17;8.98;;;;;;;2.94;91.20;97795.31;1662181;84;21069;-74
2021/11/26 02:30:24;;;;;;;15.03;8.83;;;;;;;2.95;91.35;97795.27;1690309;83;21041;-74
2021/11/26 02:32:59;;;;;;;21.12;9.50;;;;;;;2.97;91.27;97791.30;1686632;83;21049;-74
2021/11/26 02:35:28;;;;;;;13.93;8.68;;;;;;;2.98;91.33;97795.57;1680867;82;21088;-75
2021/11/26 02:37:56;;;;;;;14.80;8.25;;;;;;;2.98;91.25;97787.38;1688132;82;20942;-75
2021/11/26 02:40:26;;;;;;;15.35;8.08;;;;;;;3.00;91.31;97781.70;1714560;80;21496;-74
2021/11/26 02:42:54;;;;;;;19.48;8.30;;;;;;;3.01;91.25;97779.49;1718705;83;21097;-74
2021/11/26 02:45:23;;;;;;;13.05;8.10;;;;;;;3.02;91.24;97786.77;1718425;82;21001;-74
2021/11/26 02:47:50;;;;;;;14.85;8.05;;;;;;;3.05;91.21;97781.47;1719850;80;21623;-74
2021/11/26 02:50:18;;;;;;;9.45;6.87;;;;;;;3.07;91.18;97784.81;1719256;80;21024;-74
2021/11/26 02:52:46;;;;;;;12.90;7.05;;;;;;;3.07;91.07;97779.66;1715586;80;21532;-74
2021/11/26 02:55:17;;;;;;;13.88;6.92;;;;;;;3.07;91.04;97777.08;1716580;83;21085;-74
2021/11/26 02:57:45;;;;;;;13.98;6.67;;;;;;;3.06;91.07;97777.54;1718365;81;21644;-74
2021/11/26 03:00:16;;;;;;;12.05;6.87;;;;;;;3.05;91.01;97777.59;1716181;80;21108;-74
2021/11/26 03:02:43;;;;;;;15.85;6.42;;;;;;;3.06;91.10;97781.41;1718992;80;21069;-74
2021/11/26 03:05:11;;;;;;;9.57;6.37;;;;;;;3.07;90.97;97787.39;1717779;80;21125;-74
2021/11/26 03:07:39;;;;;;;12.37;6.85;;;;;;;3.09;91.03;97780.42;1718977;81;21052;-74
2021/11/26 03:10:08;;;;;;;17.50;8.00;;;;;;;3.10;90.95;97774.34;1716127;81;21411;-74
2021/11/26 03:12:35;;;;;;;10.82;6.03;;;;;;;3.09;90.84;97775.27;1718407;82;21565;-74
2021/11/26 03:15:04;;;;;;;13.70;6.53;;;;;;;3.06;90.61;97765.11;1717534;81;21676;-74
2021/11/26 03:17:31;;;;;;;12.07;5.83;;;;;;;3.04;90.75;97770.78;1714840;81;21068;-74
2021/11/26 03:19:57;;;;;;;9.03;6.35;;;;;;;3.04;90.82;97775.48;1718917;81;21915;-74
2021/11/26 03:22:24;;;;;;;19.02;7.25;;;;;;;3.05;90.84;97775.02;1723747;82;20942;-74
2021/11/26 03:24:51;;;;;;;11.40;6.80;;;;;;;3.06;90.89;97770.27;1718818;82;20998;-75
2021/11/26 03:27:18;;;;;;;11.80;6.97;;;;;;;3.04;90.81;97783.21;1721770;82;20945;-74
2021/11/26 03:29:44;;;;;;;18.77;6.87;;;;;;;3.05;90.87;97779.75;1700885;82;21058;-74
2021/11/26 03:32:11;;;;;;;11.88;6.37;;;;;;;3.07;90.85;97780.95;1669468;83;21142;-75
2021/11/26 03:34:38;;;;;;;14.87;6.33;;;;;;;3.09;90.82;97775.27;1683234;83;21045;-75
2021/11/26 03:37:05;;;;;;;12.90;6.95;;;;;;;3.10;90.77;97782.08;1686557;83;21599;-75
2021/11/26 03:39:31;;;;;;;13.03;7.23;;;;;;;3.12;90.83;97786.72;1683740;84;21106;-74
2021/11/26 03:41:58;;;;;;;16.45;5.85;;;;;;;3.13;90.73;97781.94;1683657;84;21818;-74
2021/11/26 03:44:25;;;;;;;13.13;5.90;;;;;;;3.12;90.71;97780.27;1678216;84;21158;-75
2021/11/26 03:46:51;;;;;;;16.83;6.57;;;;;;;3.11;90.74;97784.60;1674598;83;21688;-74
2021/11/26 03:49:18;;;;;;;13.60;7.07;;;;;;;3.12;90.69;97781.56;1688295;82;21757;-74
2021/11/26 03:51:45;;;;;;;12.13;6.67;;;;;;;3.12;90.69;97780.27;1683950;83;21035;-74
2021/11/26 03:54:11;;;;;;;9.23;5.33;;;;;;;3.13;90.70;97776.78;1687515;82;21363;-75
2021/11/26 03:56:38;;;;;;;10.70;5.67;;;;;;;3.11;90.57;97771.70;1683736;82;21046;-75
2021/11/26 03:59:06;;;;;;;10.08;5.53;;;;;;;3.11;90.52;97770.88;1686048;82;21830;-74
2021/11/26 04:01:34;;;;;;;11.65;6.65;;;;;;;3.10;90.55;97772.59;1691616;82;21571;-74
2021/11/26 04:04:02;;;;;;;10.40;5.58;;;;;;;3.11;90.67;97781.20;1679771;82;21551;-74
2021/11/26 04:06:29;;;;;;;12.98;6.65;;;;;;;3.11;90.57;97778.62;1682900;82;21053;-74
2021/11/26 04:08:55;;;;;;;13.10;6.05;;;;;;;3.09;90.63;97780.42;1688677;83;21049;-74
2021/11/26 04:11:22;;;;;;;15.00;6.63;;;;;;;3.07;90.63;97777.08;1691111;82;21060;-74
2021/11/26 04:13:49;;;;;;;12.63;5.50;;;;;;;3.05;90.60;97780.17;1681331;83;22012;-74
2021/11/26 04:16:17;;;;;;;11.70;5.53;;;;;;;3.04;90.63;97781.09;1690674;82;21586;-74
2021/11/26 04:18:44;;;;;;;9.75;5.72;;;;;;;3.01;90.63;97776.92;1691186;83;21070;-74
2021/11/26 04:21:13;;;;;;;10.65;6.17;;;;;;;2.94;90.48;97777.27;1677133;83;21154;-74
2021/11/26 04:23:40;;;;;;;16.05;6.78;;;;;;;2.86;90.39;97768.64;1680081;84;21048;-74
2021/11/26 04:26:07;;;;;;;13.32;6.33;;;;;;;2.78;90.39;97771.56;1678868;84;21067;-72
2021/11/26 04:28:33;;;;;;;9.60;6.03;;;;;;;2.71;90.43;97775.32;1683535;84;21224;-74
2021/11/26 04:31:01;;;;;;;11.20;6.22;;;;;;;2.64;90.44;97768.80;1669792;83;21562;-74
2021/11/26 04:33:29;;;;;;;11.53;6.33;;;;;;;2.60;90.48;97767.25;1668843;85;21143;-74
2021/11/26 04:35:55;;;;;;;13.55;6.83;;;;;;;2.52;90.45;97771.92;1664180;84;21188;-74
2021/11/26 04:38:22;;;;;;;9.23;5.97;;;;;;;2.46;90.60;97781.63;1665728;84;21016;-75
2021/11/26 04:40:49;;;;;;;11.73;5.95;;;;;;;2.45;90.77;97785.09;1665928;84;21023;-74
2021/11/26 04:43:16;;;;;;;13.45;6.35;;;;;;;2.45;90.84;97782.52;1663693;84;21576;-74
2021/11/26 04:45:42;;;;;;;13.48;6.72;;;;;;;2.45;90.88;97782.52;1659638;85;21106;-74
2021/11/26 04:48:09;;;;;;;14.20;6.67;;;;;;;2.48;90.93;97778.13;1664350;85;21021;-74
2021/11/26 04:50:36;;;;;;;14.53;6.47;;;;;;;2.49;90.92;97778.50;1648849;84;21062;-74
2021/11/26 04:53:03;;;;;;;14.97;6.93;;;;;;;2.52;91.02;97784.80;1664984;84;21111;-74
2021/11/26 04:55:30;;;;;;;15.57;6.57;;;;;;;2.52;91.01;97781.80;1668145;84;21794;-74
2021/11/26 04:57:56;;;;;;;15.43;6.87;;;;;;;2.52;90.97;97786.95;1665224;84;21904;-74
2021/11/26 05:00:23;;;;;;;8.43;5.33;;;;;;;2.54;91.01;97777.84;1665345;84;21163;-74
2021/11/26 05:02:51;;;;;;;14.25;6.08;;;;;;;2.54;90.93;97777.84;1664970;84;20993;-74
2021/11/26 05:05:18;;;;;;;;;;;;;;;2.52;90.98;97778.36;1668144;83;21014;-74
2021/11/26 05:07:45;;;;;;;12.00;6.40;;;;;;;2.50;90.96;97778.91;1672452;84;20564;-74
2021/11/26 05:10:13;;;;;;;10.75;6.12;;;;;;;2.48;91.01;97776.84;1670088;84;21034;-74
2021/11/26 05:12:47;;;;;;;;;;;;;;;2.46;91.02;97776.47;1662710;85;20966;-74
2021/11/26 05:15:09;;;;;;;14.23;5.17;;;;;;;2.44;91.02;97783.43;1655679;85;20242;-74
2021/11/26 05:17:36;;;;;;;13.90;5.25;;;;;;;2.42;91.02;97785.69;1659648;85;21592;-74
2021/11/26 05:20:05;;;;;;;9.45;5.35;;;;;;;2.40;91.00;97784.45;1641377;85;21093;-73
2021/11/26 05:22:31;;;;;;;11.25;5.65;;;;;;;2.37;91.03;97792.32;1633392;85;21117;-74
2021/11/26 05:24:58;;;;;;;11.03;5.50;;;;;;;2.39;91.17;97786.66;1660206;85;21192;-74
2021/11/26 05:27:25;;;;;;;10.15;4.85;;;;;;;2.40;91.22;97788.31;1666452;84;21001;-74
2021/11/26 05:29:51;;;;;;;13.68;5.25;;;;;;;2.39;91.16;97790.52;1671838;83;21045;-74
2021/11/26 05:32:18;;;;;;;7.77;3.77;;;;;;;2.42;91.24;97792.95;1727861;81;21033;-74
2021/11/26 05:34:45;;;;;;;9.87;4.70;;;;;;;2.48;91.31;97807.76;1727797;81;21915;-74
2021/11/26 05:37:11;;;;;;;12.07;4.23;;;;;;;2.51;91.29;97802.47;1694014;83;21070;-74
2021/11/26 05:39:38;;;;;;;8.93;5.53;;;;;;;2.55;91.26;97805.27;1708616;82;20991;-74
2021/11/26 05:42:05;;;;;;;10.08;4.35;;;;;;;2.57;91.20;97803.47;1699476;83;20963;-74
2021/11/26 05:44:31;;;;;;;11.20;4.17;;;;;;;2.55;91.14;97806.13;1724836;80;21869;-74
2021/11/26 05:46:58;;;;;;;9.23;4.15;;;;;;;2.58;91.27;97810.31;1721607;80;21923;-74
2021/11/26 05:49:25;;;;;;;7.67;3.70;;;;;;;2.60;91.21;97805.90;1729785;81;21080;-74
2021/11/26 05:51:51;;;;;;;11.90;4.50;;;;;;;2.61;91.22;97806.30;1722178;80;20993;-74
2021/11/26 05:54:18;;;;;;;9.83;4.30;;;;;;;2.59;91.14;97801.67;1698192;82;20986;-74
2021/11/26 05:56:45;;;;;;;6.83;3.55;;;;;;;2.57;91.12;97801.72;1723039;80;21033;-74
2021/11/26 05:59:11;;;;;;;11.03;4.12;;;;;;;2.55;91.09;97800.12;1729611;80;21920;-74
2021/11/26 06:01:38;;;;;;;6.37;3.92;;;;;;;2.54;91.14;97804.90;1701164;83;21278;-74
2021/11/26 06:04:05;;;;;;;8.18;3.55;;;;;;;2.53;91.17;97807.10;1715610;83;21068;-74
2021/11/26 06:06:32;;;;;;;9.18;3.50;;;;;;;2.53;91.17;97819.98;1714499;81;21627;-74
2021/11/26 06:08:59;;;;;;;9.10;3.80;;;;;;;2.50;91.16;97809.82;1689307;83;21625;-74
2021/11/26 06:11:26;;;;;;;12.07;4.67;;;;;;;2.52;91.22;97815.72;1723302;80;21081;-74
2021/11/26 06:13:52;;;;;;;8.55;3.40;;;;;;;2.50;91.15;97816.27;1720602;80;21013;-74
2021/11/26 06:16:19;;;;;;;8.63;3.60;;;;;;;2.49;91.22;97819.72;1695760;83;21024;-74
2021/11/26 06:18:46;;;;;;;9.33;3.15;;;;;;;2.51;91.21;97827.77;1686821;83;21352;-74
2021/11/26 06:21:12;;;;;;;11.40;3.72;;;;;;;2.50;91.19;97820.95;1715991;81;21088;-74
2021/11/26 06:24:11;;;;;;;;;;;;;;;;;;;;;
2021/11/26 06:26:39;;;;;;;8.60;3.65;;;;;;;2.49;91.17;97815.86;1676671;84;21033;-70
2021/11/26 06:29:07;;;;;;;12.30;4.00;;;;;;;2.49;91.27;97823.59;1670833;83;21050;-70
2021/11/26 06:31:35;;;;;;;12.55;3.67;;;;;;;2.51;91.34;97821.78;1673444;84;21056;-70
2021/11/26 06:34:04;;;;;;;9.65;3.67;;;;;;;2.52;91.24;97820.87;1678728;83;20998;-70
2021/11/26 06:36:33;;;;;;;17.67;3.33;;;;;;;2.53;91.27;97827.71;1693830;83;21264;-71
2021/11/26 06:39:03;;;;;;;29.67;5.60;;;;;;;2.54;91.32;97831.95;1719785;81;21344;-71
2021/11/26 06:41:30;;;;;;;15.53;4.25;;;;;;;2.55;91.32;97824.59;1719261;81;21092;-69
2021/11/26 06:43:57;;;;;;;11.85;4.15;;;;;;;2.56;91.30;97827.57;1700262;82;21060;-71
2021/11/26 06:46:25;;;;;;;10.00;5.22;;;;;;;2.56;91.28;97827.57;1686853;83;21573;-71
2021/11/26 06:48:52;;;;;;;6.37;3.75;;;;;;;2.53;91.19;97832.87;1692241;82;21930;-71
2021/11/26 06:51:19;;;;;;;12.17;4.93;;;;;;;2.51;91.21;97829.52;1689380;82;21575;-70
2021/11/26 06:53:46;;;;;;;13.33;5.50;;;;;;;2.52;91.32;97818.30;1687581;83;20966;-71
2021/11/26 06:56:13;;;;;;;16.25;5.65;;;;;;;2.48;91.19;97824.50;1666382;83;21156;-71
2021/11/26 06:58:40;;;;;;;13.77;5.47;;;;;;;2.50;91.20;97836.41;1692060;83;21005;-71
2021/11/26 07:01:07;;;;;;;22.57;7.57;;;;;;;2.51;91.26;97830.80;1688558;83;21057;-71
2021/11/26 07:03:33;;;;;;;19.10;7.65;;;;;;;2.51;91.19;97832.09;1691237;83;21029;-71
2021/11/26 07:06:00;;;;;;;16.35;5.65;;;;;;;2.51;91.28;97832.92;1693795;83;21024;-70
2021/11/26 07:08:27;;;;;;;21.82;7.53;;;;;;;2.54;91.25;97833.23;1717761;82;21057;-70
2021/11/26 07:10:54;;;;;;;22.22;7.80;;;;;;;2.57;91.33;97842.94;1718300;82;21192;-68
2021/11/26 07:13:21;;;;;;;23.77;9.45;;;;;;;2.61;91.35;97830.78;1722047;81;21172;-69
2021/11/26 07:15:48;;;;;;;14.23;6.08;;;;;;;2.65;91.32;97836.16;1716314;82;20993;-70
2021/11/26 07:18:15;;;;;;;12.60;5.65;;;;;;;2.69;91.29;97842.88;1715926;81;20988;-69
2021/11/26 07:20:42;;;;;;;11.08;5.25;;;;;;;2.71;91.12;97844.91;1720670;81;20973;-69
2021/11/26 07:23:11;;;;;;;18.37;7.12;;;;;;;2.75;91.21;97840.01;1713828;81;21094;-70
2021/11/26 07:25:39;;;;;;;15.55;6.40;;;;;;;2.78;91.17;97841.16;1683783;82;21194;-70
2021/11/26 07:28:07;;;;;;;14.58;5.50;;;;;;;2.78;91.07;97848.05;1714380;82;20997;-70
2021/11/26 07:30:35;;;;;;;13.78;5.67;;;;;;;2.77;91.16;97848.48;1713884;82;21072;-70
2021/11/26 07:33:02;;;;;;;10.13;5.05;;;;;;;2.77;91.04;97849.77;1705343;82;21152;-70
2021/11/26 07:35:29;;;;;;;11.60;5.70;;;;;;;2.72;90.97;97847.88;1731190;80;21862;-70
2021/11/26 07:37:56;;;;;;;11.65;5.40;;;;;;;2.72;91.04;97849.59;1691292;82;21250;-71
2021/11/26 07:40:24;;;;;;;14.50;5.12;;;;;;;2.72;91.13;97846.59;1723452;80;28864;-70
2021/11/26 07:42:51;;;;;;;16.12;6.58;;;;;;;2.71;91.11;97856.50;1693867;83;21577;-70
2021/11/26 07:45:18;;;;;;;20.27;5.65;;;;;;;2.73;91.07;97849.55;1704622;82;21018;-71
2021/11/26 07:47:46;;;;;;;15.75;6.58;;;;;;;2.75;91.06;97848.20;1701451;82;21103;-71
2021/11/26 07:50:14;;;;;;;20.72;6.40;;;;;;;2.74;91.02;97843.47;1720526;80;21062;-70
2021/11/26 07:52:41;;;;;;;;;;;;;;;2.77;91.06;97844.62;1718653;81;21183;-71
2021/11/26 07:55:10;;;;;;;14.40;5.95;;;;;;;2.79;91.05;97840.23;1689758;82;20492;-70
2021/11/26 07:57:37;;;;;;;10.65;5.25;;;;;;;2.80;91.08;97844.93;1714781;82;21120;-70
2021/11/26 08:00:06;;;;;;;16.55;6.35;;;;;;;2.83;91.20;97840.50;1686951;82;21068;-69
2021/11/26 08:02:33;;;;;;;17.48;6.97;;;;;;;2.76;91.08;97817.19;1714030;82;21825;-70
2021/11/26 08:05:00;;;;;;;17.45;6.87;;;;;;;2.88;91.07;97838.52;1716377;82;21324;-70
2021/11/26 08:07:27;;;;;;;19.13;7.67;;;;;;;2.90;91.08;97839.28;1712113;82;21388;-70
2021/11/26 08:09:57;;;;;;;22.40;8.20;;;;;;;2.94;91.08;97835.27;1710316;81;22116;-69
2021/11/26 08:12:24;;;;;;;21.90;8.13;;;;;;;2.96;91.02;97830.89;1697844;83;21548;-69
2021/11/26 08:14:53;;;;;;;20.50;8.25;;;;;;;3.03;91.18;97842.61;1656925;83;21066;-70
2021/11/26 08:17:20;;;;;;;19.77;8.10;;;;;;;3.09;91.09;97847.47;1708389;83;21034;-70
2021/11/26 08:19:47;;;;;;;16.45;8.00;;;;;;;3.13;91.08;97847.23;1704142;83;21778;-69
2021/11/26 08:22:17;;;;;;;19.85;7.40;;;;;;;3.17;91.01;97842.78;1700844;83;20990;-70
2021/11/26 08:24:42;;;;;;;15.63;7.20;;;;;;;3.22;90.92;97841.26;1696643;83;21699;-69
2021/11/26 08:27:10;;;;;;;15.67;7.23;;;;;;;3.26;91.00;97839.77;1693979;83;21107;-70
2021/11/26 08:29:37;;;;;;;12.40;6.47;;;;;;;3.33;91.05;97836.00;1693567;83;21037;-70
2021/11/26 08:32:05;;;;;;;11.08;6.20;;;;;;;3.41;91.14;97845.09;1680507;83;21061;-70
2021/11/26 08:34:32;;;;;;;13.32;6.47;;;;;;;3.50;91.05;97844.64;1675507;83;21127;-70
2021/11/26 08:36:59;;;;;;;13.00;6.28;;;;;;;3.56;90.87;97840.50;1668711;84;21066;-70
2021/11/26 08:39:26;;;;;;;13.20;5.53;;;;;;;3.59;90.84;97841.63;1674258;84;21360;-70
2021/11/26 08:41:54;;;;;;;11.93;6.25;;;;;;;3.60;90.65;97843.29;1648779;85;21429;-71
2021/11/26 08:44:20;;;;;;;;;;;;;;;3.58;90.45;97839.94;1673847;84;21291;-70
2021/11/26 08:46:50;;;;;;;13.43;7.00;;;;;;;3.57;90.42;97844.73;1653672;84;20743;-71
2021/11/26 08:49:17;;;;;;;15.98;6.25;;;;;;;3.59;90.51;97847.62;1673479;84;21011;-72
2021/11/26 08:51:48;;;;;;;10.72;5.30;;;;;;;3.62;90.55;97846.64;1653414;84;21479;-71
2021/11/26 08:54:15;;;;;;;12.13;5.47;;;;;;;3.69;90.62;97854.45;1676853;83;21124;-71
2021/11/26 08:56:45;;;;;;;10.03;6.10;;;;;;;3.72;90.55;97856.88;1641296;86;27421;-72
2021/11/26 08:59:16;;;;;;;19.60;7.60;;;;;;;3.80;90.58;97861.20;1649245;85;21560;-71
2021/11/26 09:01:44;;;;;;;14.20;6.85;;;;;;;3.95;90.79;97862.21;1645193;85;23830;-71
2021/11/26 09:04:11;;;;;;;12.07;5.63;;;;;;;4.04;90.53;97852.70;1667851;84;21037;-71
2021/11/26 09:06:39;;;;;;;12.60;5.17;;;;;;;4.11;90.40;97851.92;1622158;84;20999;-68
2021/11/26 09:09:07;;;;;;;13.85;5.87;;;;;;;4.17;90.07;97843.88;1665510;84;21080;-68
2021/11/26 09:11:34;;;;;;;10.80;4.80;;;;;;;4.12;89.74;97856.19;1668651;84;21739;-68
2021/11/26 09:14:04;;;;;;;11.83;6.00;;;;;;;4.15;89.92;97857.33;1682351;83;21576;-67
2021/11/26 09:16:29;;;;;;;15.72;7.00;;;;;;;4.19;89.90;97863.98;1644385;85;21106;-69
2021/11/26 09:18:56;;;;;;;16.07;5.75;;;;;;;4.23;90.05;97864.69;1672280;84;21115;-68
2021/11/26 09:21:23;;;;;;;11.80;5.47;;;;;;;4.33;90.29;97856.00;1674309;84;21035;-68
2021/11/26 09:23:50;;;;;;;8.23;5.25;;;;;;;4.44;90.11;97858.86;1643565;85;21604;-68
2021/11/26 09:26:17;;;;;;;13.03;6.22;;;;;;;4.49;90.00;97853.00;1667061;85;21086;-69
2021/11/26 09:28:45;;;;;;;;;;;;;;;4.50;89.59;97855.95;1668814;84;21089;-69
2021/11/26 09:31:11;;;;;;;;;;;;;;;4.43;89.28;97861.91;1670489;84;20452;-69
2021/11/26 09:33:38;;;;;;;12.37;5.80;;;;;;;4.39;89.11;97860.84;1675642;84;20236;-75
2021/11/26 09:36:11;;;;;;;14.00;7.12;;;;;;;4.35;89.41;97858.05;1711550;81;21060;-68
2021/11/26 09:38:40;;;;;;;13.68;5.58;;;;;;;4.47;89.93;97854.81;1709270;82;21009;-83
2021/11/26 09:41:28;;;;;;;42.10;7.10;;;;;;;4.58;89.71;97858.97;1697581;82;21076;-69
2021/11/26 09:43:59;;;;;;;17.20;4.97;;;;;;;4.62;89.64;97851.87;1665196;83;21697;-71
2021/11/26 09:46:28;;;;;;;17.30;5.30;;;;;;;4.68;89.46;97856.28;1657014;84;20981;-74
2021/11/26 09:48:53;;;;;;;10.85;4.55;;;;;;;4.75;89.32;97846.91;1657024;83;21153;-73
2021/11/26 09:51:20;;;;;;;;;;;;;;;4.65;88.49;97844.81;1678326;83;21650;-73
2021/11/26 09:53:48;;;;;;;14.33;4.72;;;;;;;4.62;88.71;97839.81;1667953;84;21308;-73
2021/11/26 09:56:16;;;;;;;11.50;5.95;;;;;;;4.69;89.01;97846.30;1668960;84;21546;-74
2021/11/26 09:58:44;;;;;;;13.45;5.00;;;;;;;4.77;88.98;97854.13;1669103;84;21851;-74
2021/11/26 10:01:14;;;;;;;16.27;6.62;;;;;;;4.83;89.11;97847.33;1662883;84;21574;-72
2021/11/26 10:03:46;;;;;;;10.98;5.22;;;;;;;4.90;89.19;97847.35;1681383;84;21734;-72
2021/11/26 10:06:40;;;;;;;13.85;5.20;;;;;;;5.00;88.96;97852.41;1645056;86;22384;-72
2021/11/26 10:09:22;;;;;;;16.65;4.87;;;;;;;5.12;89.00;97849.14;1669079;84;21092;-71
2021/11/26 10:11:58;;;;;;;14.40;4.60;;;;;;;5.15;88.49;97846.42;1642021;85;21046;-71
2021/11/26 10:14:35;;;;;;;11.08;3.80;;;;;;;5.29;88.99;97840.48;1666484;84;21105;-70
2021/11/26 10:17:20;;;;;;;9.40;4.22;;;;;;;5.37;88.45;97840.03;1663591;84;20990;-71
2021/11/26 10:19:51;;;;;;;9.98;3.37;;;;;;;5.45;88.50;97835.25;1668375;84;21626;-70
2021/11/26 10:22:31;;;;;;;8.43;3.30;;;;;;;5.50;88.09;97843.60;1666604;84;21104;-70
2021/11/26 10:25:20;;;;;;;10.95;4.03;;;;;;;5.49;87.74;97847.12;1669624;84;21663;-71
2021/11/26 10:27:57;;;;;;;12.63;4.40;;;;;;;5.54;87.91;97841.20;1668164;84;21170;-71
2021/11/26 10:30:39;;;;;;;8.68;3.52;;;;;;;5.67;87.82;97837.92;1647955;85;21690;-68
2021/11/26 10:33:23;;;;;;;9.55;3.67;;;;;;;5.74;87.95;97837.92;1645362;84;22073;-70
2021/11/26 10:35:58;;;;;;;10.85;4.58;;;;;;;5.71;87.28;97838.94;1667905;83;21384;-70
2021/11/26 10:38:36;;;;;;;16.00;4.33;;;;;;;5.55;87.15;97839.00;1672226;84;21037;-71
2021/11/26 10:41:15;;;;;;;8.65;3.60;;;;;;;5.61;87.84;97841.23;1667786;84;21127;-71
2021/11/26 11:00:00;;;;;;;8.95;3.55;;;;;;;5.59;86.85;97832.71;1619741;85;21113;-70
2021/11/26 11:02:35;;;;;;;6.95;3.10;;;;;;;5.63;86.82;97826.06;1640870;85;21124;-70
2021/11/26 11:05:03;;;;;;;6.10;2.60;;;;;;;5.65;86.52;97822.93;1672362;83;21241;-70
2021/11/26 11:07:46;;;;;;;13.25;3.77;;;;;;;5.68;86.72;97827.93;1616310;85;21140;-70
2021/11/26 11:10:36;;;;;;;10.88;3.60;;;;;;;5.68;86.72;97816.28;1673571;83;21572;-70
2021/11/26 11:13:20;;;;;;;12.88;3.62;;;;;;;5.69;86.50;97816.67;1669877;84;21101;-69
2021/11/26 11:15:53;;;;;;;7.65;3.35;;;;;;;5.67;86.49;97815.92;1672381;84;21076;-68
2021/11/26 11:18:20;;;;;;;9.83;3.72;;;;;;;5.81;86.57;97821.13;1669320;84;21002;-70
2021/11/26 11:20:47;;;;;;;;;;;;;;;5.79;86.04;97815.20;1638882;85;22085;-72
2021/11/26 11:23:16;;;;;;;15.45;3.95;;;;;;;5.78;86.15;97815.66;1638454;85;20126;-71
2021/11/26 11:25:44;;;;;;;10.08;3.92;;;;;;;5.79;86.24;97812.61;1636305;85;21317;-71
2021/11/26 11:28:12;;;;;;;10.93;4.17;;;;;;;5.81;86.11;97810.77;1659658;84;21607;-68
2021/11/26 11:30:42;;;;;;;10.82;3.85;;;;;;;5.85;86.19;97812.24;1644998;85;21114;-70
2021/11/26 11:33:10;;;;;;;10.25;3.77;;;;;;;5.91;86.04;97811.91;1645810;84;21646;-69
2021/11/26 11:35:38;;;;;;;10.30;3.87;;;;;;;5.93;86.08;97804.03;1647026;85;21005;-70
2021/11/26 11:38:08;;;;;;;8.08;3.10;;;;;;;5.97;85.96;97803.80;1648875;85;21251;-68
2021/11/26 11:40:45;;;;;;;11.38;3.60;;;;;;;5.99;86.02;97803.25;1665687;83;21029;-68
2021/11/26 11:43:18;;;;;;;8.58;2.58;;;;;;;5.97;85.76;97803.80;1662396;84;21230;-69
2021/11/26 11:46:02;;;;;;;9.45;3.10;;;;;;;5.86;85.35;97799.69;1669698;84;21023;-68
2021/11/26 11:48:36;;;;;;;4.92;3.08;;;;;;;5.66;84.67;97799.98;1681875;83;21107;-69
2021/11/26 11:51:10;;;;;;;8.58;3.95;;;;;;;5.48;85.09;97796.25;1635721;85;21943;-67
2021/11/26 11:53:37;;;;;;;8.80;3.10;;;;;;;5.44;85.43;97804.30;1671254;84;21647;-67
2021/11/26 11:56:19;;;;;;;7.53;3.30;;;;;;;5.48;85.44;97798.02;1678658;82;21083;-68
2021/11/26 11:58:56;;;;;;;11.75;3.70;;;;;;;5.47;85.00;97798.48;1669640;83;21005;-67
2021/11/26 12:01:27;;;;;;;14.03;4.28;;;;;;;5.44;84.97;97794.77;1670557;83;21089;-67